Aérodrome :
LOGIN :

S'inscrire | Disclaimer

   EN    FR    IT 

 










Légende :    VFR   VFR Marginal   IFR   IFR Intensif   IFR Très Intensif
Visi : 
Plafond : 
>= 8 km
>= 3000ft
5 à 8 km
1000 à 3000 ft
1500m à 5 km
500 à 1000 ft
800 à 1500m
200 à 500 ft
< 800m
< 200 ft
Symboles :   Orages  Brouillard  Fortes neiges  Fortes précipitations  Vent > 20 kt
SIGMETs :   Divers  Orages  Givrage  Turbulence  Onde Orograph.  Cendres Volcan.







- Altitude de l'aérodrome : 458 ft
- Voir les cartes d'approche


LFSI - St-Dizier

DERNIER METAR :
  • 161530Z AUTO 28003KT CAVOK 16/01 Q1026

METARs EXPIRÉS :
  • 161500Z AUTO 28004KT CAVOK 16/02 Q1026
  • 161430Z AUTO 28005KT CAVOK 16/03 Q1026
  • 161400Z AUTO 28005KT CAVOK 16/03 Q1026
  • 161330Z AUTO 27004KT 200V310 CAVOK 16/03 Q1026
  • 161300Z AUTO 26004KT 200V290 CAVOK 16/02 Q1027

TAF TAF LFSI
Valide du 16 à 15h jusqu'au 17 à 15h UTC


161400Z 1615/1715 VRB03KT CAVOK
Pas de NOTAMs connus pour ce terrain.



MET'MAP, la Météo Aéronautique d'un coup d'oeil ! - Copyright ORBIFLY Décembre 2007 - Disclaimer

ORBIFLY MET'MAP TEAM :

Programmation & Développement : Alexandra Zaïnal
Conception & Développement : Baudouin d'Aumeries
Co-Programmation & Développement : Marc-Olivier Méhu
Soutien technique & logistique : Manuel Goepfert

Contact : metmap@orbifly.com




SOURCES & CREDITS :

   NOAA